Time;durP1;ratioP1;P1;durP2;ratioP2;P2;SDS_P1;SDS_P2;PMS_P1;PMS_P2;Temp;Humidity;BMP_temperature;BMP_pressure;BME280_temperature;BME280_humidity;BME280_pressure;Samples;Min_cycle;Max_cycle;Signal;HPM_P1;HPM_P2
2023/06/11 00:01:40;;;;;;;11.70;8.97;;;19.90;88.50;;;19.81;60.94;101233.38;5054930;28;20240;-74
2023/06/11 00:04:19;;;;;;;10.53;9.43;;;19.90;88.90;;;19.69;60.97;101230.47;5054607;28;20229;-74
2023/06/11 00:06:53;;;;;;;11.00;9.60;;;19.80;89.00;;;19.71;61.16;101240.06;5054848;28;20190;-75
2023/06/11 00:09:27;;;;;;;9.97;8.97;;;19.70;89.80;;;19.69;61.46;101241.34;5054476;28;20339;-75
2023/06/11 00:12:01;;;;;;;10.30;9.40;;;19.70;89.90;;;19.68;61.44;101236.94;5054536;28;20276;-73
2023/06/11 00:14:34;;;;;;;11.33;9.60;;;19.70;90.10;;;19.63;61.54;101232.13;5054638;28;20214;-73
2023/06/11 00:17:09;;;;;;;9.87;8.97;;;19.70;90.00;;;19.61;61.51;101236.94;5054624;28;20222;-73
2023/06/11 00:19:43;;;;;;;10.87;9.87;;;19.70;90.00;;;19.58;61.90;101239.22;5054595;28;20268;-74
2023/06/11 00:22:17;;;;;;;10.80;9.77;;;19.60;90.10;;;19.56;61.78;101244.84;5054423;28;20226;-75
2023/06/11 00:24:51;;;;;;;10.50;9.40;;;19.60;90.30;;;19.48;62.16;101238.78;5054542;28;20189;-75
2023/06/11 00:27:25;;;;;;;10.80;9.70;;;19.50;90.40;;;19.53;61.86;101239.84;5054588;28;20191;-75
2023/06/11 00:30:01;;;;;;;13.37;9.87;;;19.60;90.40;;;19.38;62.41;101243.75;5054327;28;20198;-75
2023/06/11 00:32:36;;;;;;;11.27;10.13;;;19.50;90.40;;;19.32;62.80;101242.69;5054314;28;20308;-75
2023/06/11 00:35:11;;;;;;;11.87;9.83;;;19.30;90.80;;;19.20;62.67;101247.88;5054171;28;20221;-75
2023/06/11 00:37:47;;;;;;;12.07;10.77;;;19.20;90.90;;;19.18;62.80;101246.38;5053912;28;20643;-75
2023/06/11 00:40:21;;;;;;;11.33;10.10;;;19.10;91.30;;;19.03;63.67;101245.72;5053845;28;20598;-75
2023/06/11 00:42:56;;;;;;;11.13;9.67;;;19.00;91.40;;;18.89;63.71;101244.00;5054550;28;20308;-75
2023/06/11 00:45:29;;;;;;;11.13;9.37;;;18.90;91.70;;;18.83;63.93;101242.09;5053905;28;20301;-74
2023/06/11 00:48:08;;;;;;;12.77;10.40;;;18.80;91.90;;;18.74;64.20;101247.69;5053889;28;20643;-76
2023/06/11 00:50:47;;;;;;;11.00;9.87;;;18.70;92.00;;;18.67;64.11;101252.25;5053914;28;20195;-75
2023/06/11 00:53:24;;;;;;;12.60;9.67;;;18.70;92.00;;;18.68;64.22;101250.38;5053686;28;20755;-76
2023/06/11 00:55:57;;;;;;;11.67;9.93;;;18.80;92.10;;;18.58;64.79;101253.44;5053590;28;20661;-75
2023/06/11 00:58:33;;;;;;;11.73;9.90;;;18.60;92.30;;;18.51;65.10;101241.72;5053647;28;20704;-74
2023/06/11 01:01:08;;;;;;;11.40;10.20;;;18.50;92.30;;;18.44;64.58;101246.25;5053894;28;20236;-76
2023/06/11 01:03:41;;;;;;;11.73;9.93;;;18.50;92.50;;;18.44;65.06;101251.66;5053738;28;20237;-75
2023/06/11 01:06:17;;;;;;;10.83;9.73;;;18.40;92.60;;;18.36;65.46;101243.69;5053761;28;20222;-75
2023/06/11 01:08:55;;;;;;;11.77;8.87;;;18.40;92.60;;;18.40;64.68;101242.25;5053769;28;20228;-76
2023/06/11 01:11:32;;;;;;;10.17;9.10;;;18.40;92.60;;;18.32;65.42;101237.00;5053378;28;20639;-73
2023/06/11 01:14:06;;;;;;;10.77;9.73;;;18.30;92.80;;;18.32;64.81;101242.44;5053488;28;20260;-74
2023/06/11 01:16:52;;;;;;;10.30;9.17;;;18.40;92.50;;;18.28;65.00;101246.56;5053516;28;20627;-75
2023/06/11 01:19:56;;;;;;;9.97;8.43;;;18.20;92.70;;;18.19;65.37;101240.44;5053527;28;20202;-75
2023/06/11 01:22:49;;;;;;;11.00;9.03;;;18.20;92.70;;;18.18;65.30;101246.06;5053028;28;20709;-74
2023/06/11 01:25:45;;;;;;;12.53;8.40;;;18.20;92.60;;;18.11;65.47;101242.47;5053449;28;20217;-74
2023/06/11 01:28:26;;;;;;;11.07;8.30;;;18.20;92.80;;;18.14;64.96;101239.38;5053429;28;20248;-75
2023/06/11 01:31:06;;;;;;;8.93;8.03;;;18.20;92.50;;;18.01;65.07;101233.84;5052994;28;20187;-75
2023/06/11 01:33:40;;;;;;;10.70;8.40;;;18.00;92.70;;;17.95;64.72;101240.03;5053204;28;20592;-74
2023/06/11 01:36:14;;;;;;;8.83;7.17;;;18.00;92.50;;;17.98;65.39;101235.06;5052946;28;20214;-75
2023/06/11 01:38:51;;;;;;;13.40;7.40;;;18.10;92.50;;;17.93;64.34;101232.13;5052943;28;20670;-75
2023/06/11 01:41:25;;;;;;;10.63;6.83;;;18.00;92.30;;;18.04;64.01;101238.88;5052908;28;20560;-74
2023/06/11 01:43:58;;;;;;;8.50;6.40;;;18.10;92.20;;;18.02;63.65;101233.63;5053138;28;20226;-75
2023/06/11 01:46:32;;;;;;;9.60;6.60;;;18.10;92.00;;;17.97;63.72;101238.00;5053165;28;20367;-75
2023/06/11 01:49:05;;;;;;;7.73;6.27;;;18.00;92.00;;;17.97;63.79;101240.69;5053149;28;20221;-75
2023/06/11 01:51:39;;;;;;;7.43;6.37;;;18.00;91.90;;;17.98;63.15;101239.66;5053177;28;20277;-75
2023/06/11 01:54:12;;;;;;;9.83;6.50;;;18.10;91.80;;;17.88;63.43;101244.56;5052949;28;20232;-74
2023/06/11 01:56:45;;;;;;;11.50;5.67;;;18.00;91.50;;;17.89;62.41;101236.25;5053102;28;20228;-75
2023/06/11 01:59:20;;;;;;;9.87;5.90;;;18.00;91.30;;;17.78;63.36;101236.78;5053010;28;20221;-74
2023/06/11 02:01:54;;;;;;;8.57;5.97;;;18.00;91.30;;;17.79;62.96;101245.75;5052983;28;20194;-74
2023/06/11 02:04:28;;;;;;;9.97;6.10;;;17.90;91.60;;;17.69;62.97;101238.78;5055875;28;20198;-74
2023/06/11 02:07:01;;;;;;;7.57;5.80;;;17.90;91.40;;;17.66;62.84;101238.34;5057144;28;20190;-74
2023/06/11 02:09:35;;;;;;;9.27;6.00;;;17.90;91.30;;;17.62;63.39;101243.31;5057798;28;20292;-73
2023/06/11 02:12:10;;;;;;;7.67;5.60;;;17.80;91.90;;;17.65;62.80;101240.22;5056928;28;20537;-75
2023/06/11 02:14:44;;;;;;;7.37;5.30;;;17.80;91.10;;;17.57;63.00;101242.19;5057326;28;20261;-75
2023/06/11 02:17:17;;;;;;;8.77;5.30;;;17.70;91.10;;;17.60;63.42;101247.25;5057347;28;20225;-75
2023/06/11 02:19:52;;;;;;;11.17;5.33;;;17.70;91.70;;;17.57;62.92;101255.72;5056944;28;20187;-75
2023/06/11 02:22:25;;;;;;;9.97;6.10;;;17.60;91.80;;;17.54;63.42;101254.22;5056418;28;20225;-75
2023/06/11 02:24:59;;;;;;;11.43;5.80;;;17.60;91.60;;;17.44;63.25;101248.28;5056802;28;20191;-74
2023/06/11 02:27:32;;;;;;;11.97;5.80;;;17.50;91.70;;;17.53;62.96;101249.03;5056677;28;20222;-75
2023/06/11 02:30:06;;;;;;;7.30;5.50;;;17.60;91.60;;;17.44;63.58;101247.44;5056616;28;20218;-75
2023/06/11 02:32:40;;;;;;;8.17;5.43;;;17.50;91.80;;;17.45;63.05;101249.97;5056209;28;20706;-75
2023/06/11 02:35:15;;;;;;;6.53;5.20;;;17.50;91.70;;;17.41;63.29;101232.44;5056256;28;20253;-75
2023/06/11 02:37:48;;;;;;;7.20;5.03;;;17.50;91.70;;;17.44;63.04;101232.06;5056495;28;20285;-75
2023/06/11 02:40:22;;;;;;;6.77;4.93;;;17.60;91.60;;;17.43;63.31;101240.38;5056434;28;20190;-75
2023/06/11 02:42:55;;;;;;;6.97;5.53;;;17.60;91.60;;;17.33;62.71;101243.38;5056329;28;20229;-75
2023/06/11 02:45:28;;;;;;;6.90;5.17;;;17.40;91.60;;;17.36;62.95;101240.31;5055923;28;20585;-75
2023/06/11 02:48:02;;;;;;;7.77;5.37;;;17.40;91.70;;;17.34;63.14;101236.09;5056314;28;20279;-75
2023/06/11 02:50:35;;;;;;;5.70;4.70;;;17.40;91.70;;;17.33;63.69;101232.56;5056283;28;20190;-75
2023/06/11 02:53:09;;;;;;;9.40;5.07;;;17.50;91.60;;;17.24;64.01;101241.84;5056148;28;20226;-75
2023/06/11 02:55:42;;;;;;;7.27;5.13;;;17.40;91.60;;;17.18;63.35;101237.19;5055808;28;20697;-75
2023/06/11 02:58:15;;;;;;;12.00;5.30;;;17.30;91.70;;;17.14;63.63;101241.31;5055811;28;20596;-75
2023/06/11 03:00:49;;;;;;;6.80;4.60;;;17.20;92.20;;;17.07;63.41;101245.81;5055749;28;20233;-75
2023/06/11 03:03:22;;;;;;;8.27;4.97;;;17.20;92.00;;;17.10;63.73;101250.81;5055963;28;20230;-74
2023/06/11 03:05:56;;;;;;;12.33;5.33;;;17.90;92.10;;;17.05;64.24;101250.56;5056033;28;20204;-74
2023/06/11 03:08:33;;;;;;;6.97;5.47;;;17.20;91.90;;;17.07;63.91;101248.50;5055878;28;20194;-74
2023/06/11 03:11:06;;;;;;;6.77;4.97;;;17.20;92.00;;;17.06;63.54;101249.53;5055547;28;20641;-75
2023/06/11 03:13:40;;;;;;;8.20;5.17;;;17.20;91.80;;;16.96;62.88;101255.25;5055942;28;20233;-74
2023/06/11 03:16:13;;;;;;;8.57;4.93;;;17.10;91.50;;;16.93;63.74;101257.47;5054173;28;20686;-74
2023/06/11 03:18:47;;;;;;;9.60;5.00;;;17.10;92.00;;;16.85;63.39;101263.03;5055897;28;20194;-74
2023/06/11 03:21:21;;;;;;;11.47;5.23;;;17.00;91.90;;;16.92;63.50;101263.94;5055632;28;20282;-75
2023/06/11 03:23:54;;;;;;;8.33;5.10;;;17.00;92.00;;;16.90;63.90;101257.88;5055700;28;20253;-75
2023/06/11 03:26:28;;;;;;;7.37;4.97;;;17.10;92.00;;;16.84;63.47;101255.91;5055568;28;20194;-74
2023/06/11 03:29:02;;;;;;;9.77;5.17;;;17.00;92.10;;;16.79;64.83;101261.03;5055568;28;20194;-74
2023/06/11 03:31:35;;;;;;;9.73;4.97;;;16.90;92.10;;;16.79;64.32;101263.75;5055308;28;20538;-75
2023/06/11 03:34:09;;;;;;;9.43;4.87;;;16.90;91.90;;;16.76;63.70;101261.41;5055382;28;20230;-73
2023/06/11 03:36:42;;;;;;;9.03;4.97;;;16.90;92.10;;;16.80;63.84;101262.72;5055037;28;20671;-75
2023/06/11 03:39:16;;;;;;;9.93;5.23;;;16.90;92.20;;;16.76;64.40;101261.41;5055317;28;20222;-75
2023/06/11 03:41:50;;;;;;;7.43;5.23;;;16.90;92.70;;;16.68;63.80;101259.66;5055308;28;20196;-74
2023/06/11 03:44:23;;;;;;;7.40;5.13;;;16.80;92.20;;;16.67;64.32;101261.53;5054806;28;20673;-75
2023/06/11 03:46:57;;;;;;;8.93;5.17;;;16.80;92.50;;;16.67;64.34;101271.50;5055237;28;20277;-75
2023/06/11 03:49:30;;;;;;;9.37;5.10;;;16.80;92.30;;;16.65;64.10;101268.97;5055334;28;20202;-74
2023/06/11 03:52:04;;;;;;;7.73;4.90;;;16.80;92.30;;;16.67;63.63;101266.94;5055048;28;20190;-74
2023/06/11 03:54:37;;;;;;;7.57;5.23;;;16.90;92.20;;;16.63;64.71;101270.19;5055072;28;20194;-74
2023/06/11 03:57:12;;;;;;;6.97;5.00;;;16.80;92.20;;;16.65;64.01;101271.69;5055197;28;20232;-75
2023/06/11 03:59:45;;;;;;;10.60;5.10;;;16.80;92.10;;;16.64;64.48;101267.28;5055006;28;20224;-75
2023/06/11 04:02:19;;;;;;;9.77;5.07;;;16.80;92.00;;;16.54;64.54;101266.69;5054955;28;20226;-74
2023/06/11 04:04:53;;;;;;;12.37;5.43;;;16.80;92.00;;;16.61;64.69;101262.25;5054631;28;20718;-75
2023/06/11 04:07:26;;;;;;;7.30;5.03;;;16.80;92.40;;;16.51;64.68;101277.91;5054925;28;20182;-75
2023/06/11 04:09:59;;;;;;;8.80;5.00;;;16.80;92.10;;;16.49;64.79;101274.53;5054619;28;20190;-75
2023/06/11 04:12:33;;;;;;;8.40;5.17;;;16.70;92.10;;;16.51;64.67;101277.03;5054905;28;20265;-75
2023/06/11 04:15:07;;;;;;;7.80;5.07;;;16.80;92.50;;;16.59;65.18;101274.28;5054898;28;20191;-75
2023/06/11 04:17:41;;;;;;;7.87;4.20;;;16.80;92.30;;;16.56;64.62;101277.38;5054241;28;20249;-75
2023/06/11 04:20:16;;;;;;;9.73;4.80;;;16.80;92.40;;;16.55;64.89;101276.53;5054591;28;20606;-75
2023/06/11 04:22:49;;;;;;;9.67;5.00;;;16.80;92.30;;;16.50;64.85;101280.81;5054421;28;20225;-75
2023/06/11 04:25:23;;;;;;;7.17;4.90;;;16.70;92.20;;;16.55;64.96;101281.94;5054466;28;20200;-75
2023/06/11 04:27:57;;;;;;;8.17;4.90;;;16.80;92.40;;;16.56;64.44;101280.06;5054264;28;20186;-74
2023/06/11 04:30:31;;;;;;;8.00;4.87;;;16.80;92.30;;;16.56;65.28;101278.22;5054082;28;20632;-74
2023/06/11 04:33:04;;;;;;;6.07;4.77;;;16.80;92.70;;;16.54;64.45;101287.53;5053891;28;20593;-74
2023/06/11 04:35:38;;;;;;;5.53;4.80;;;16.80;92.60;;;16.58;65.60;101278.88;5053910;28;20193;-74
2023/06/11 04:38:12;;;;;;;8.73;4.77;;;16.80;92.90;;;16.56;65.51;101278.22;5054388;28;20277;-74
2023/06/11 04:40:45;;;;;;;7.53;5.23;;;16.80;93.00;;;16.55;64.51;101278.38;5054193;28;20236;-74
2023/06/11 04:43:23;;;;;;;12.30;5.30;;;16.80;92.50;;;16.42;65.13;101273.63;5054074;28;20309;-74
2023/06/11 04:45:57;;;;;;;5.87;4.67;;;16.70;92.50;;;16.51;65.37;101277.91;5053781;28;20217;-74
2023/06/11 04:48:34;;;;;;;7.93;5.30;;;16.80;93.10;;;16.52;65.72;101290.38;5054175;28;20209;-74
2023/06/11 04:51:11;;;;;;;8.20;5.17;;;16.80;93.10;;;16.50;65.09;101287.06;5054170;28;20316;-75
2023/06/11 04:53:45;;;;;;;7.83;5.10;;;16.80;92.70;;;16.56;65.03;101285.47;5056418;28;20229;-74
2023/06/11 04:56:18;;;;;;;5.30;4.83;;;16.80;92.70;;;16.61;66.10;101288.50;5056631;28;20209;-74
2023/06/11 04:58:52;;;;;;;10.50;4.90;;;16.90;93.10;;;16.57;64.91;101288.03;5062156;28;20187;-74
2023/06/11 05:01:30;;;;;;;9.93;5.07;;;16.90;92.70;;;16.55;65.88;101284.66;5063569;28;20233;-74
2023/06/11 05:04:03;;;;;;;7.87;5.10;;;16.90;92.60;;;16.60;64.66;101282.25;5066042;28;20640;-74
2023/06/11 05:06:36;;;;;;;8.33;5.53;;;16.90;92.60;;;16.61;64.96;101278.47;5075029;28;20187;-74
2023/06/11 05:09:12;;;;;;;9.50;5.30;;;16.90;92.70;;;16.63;65.24;101276.44;5076020;28;20226;-74
2023/06/11 05:11:47;;;;;;;10.20;5.27;;;16.90;92.90;;;16.67;65.47;101272.34;5053797;28;20194;-76
2023/06/11 05:14:20;;;;;;;8.40;5.03;;;17.00;93.00;;;16.71;66.04;101276.34;5053306;28;20631;-76
2023/06/11 05:16:54;;;;;;;7.40;5.27;;;17.00;92.90;;;16.72;65.29;101274.47;5053438;28;20307;-75
2023/06/11 05:19:27;;;;;;;6.23;5.13;;;17.10;92.50;;;16.67;65.53;101277.75;5053480;28;20273;-74
2023/06/11 05:22:01;;;;;;;7.83;5.50;;;17.00;92.60;;;16.71;66.04;101281.75;5053403;28;20224;-75
2023/06/11 05:24:34;;;;;;;7.43;5.23;;;17.10;92.80;;;16.71;65.62;101279.03;5053108;28;20654;-75
2023/06/11 05:27:10;;;;;;;15.80;6.13;;;17.00;92.80;;;16.79;65.13;101274.56;5053397;28;20312;-75
2023/06/11 05:29:43;;;;;;;7.70;5.30;;;17.10;92.80;;;16.79;65.75;101277.28;5053751;28;20221;-75
2023/06/11 05:32:18;;;;;;;8.27;5.60;;;17.10;92.70;;;16.83;65.91;101283.97;5053515;28;20234;-75
2023/06/11 05:34:52;;;;;;;7.93;5.27;;;17.20;92.60;;;16.84;65.36;101282.97;5053002;28;20312;-75
2023/06/11 05:37:25;;;;;;;9.33;5.23;;;17.20;92.40;;;16.86;65.67;101280.91;5053279;28;20249;-75
2023/06/11 05:39:58;;;;;;;7.57;5.40;;;17.20;92.40;;;16.91;64.73;101273.06;5052932;28;20194;-74
2023/06/11 05:42:31;;;;;;;9.23;5.13;;;17.20;92.30;;;16.94;64.14;101278.09;5052873;28;20660;-75
2023/06/11 05:45:05;;;;;;;7.60;5.17;;;17.30;92.30;;;16.99;64.94;101279.19;5053100;28;20218;-75
2023/06/11 05:47:39;;;;;;;8.67;5.60;;;17.40;92.40;;;16.99;64.84;101287.31;5053402;28;20186;-76
2023/06/11 05:50:14;;;;;;;8.73;5.93;;;17.40;92.90;;;17.06;64.65;101288.25;5053549;28;20201;-76
2023/06/11 05:52:48;;;;;;;8.33;5.40;;;17.40;92.60;;;17.10;64.84;101288.69;5053032;28;20253;-76
2023/06/11 05:55:22;;;;;;;6.60;5.47;;;17.50;92.70;;;17.15;64.31;101289.00;5052694;28;20226;-76
2023/06/11 05:57:55;;;;;;;12.43;5.60;;;17.50;92.40;;;17.20;64.71;101292.78;5052922;28;20217;-75
2023/06/11 06:00:29;;;;;;;7.97;5.67;;;17.60;92.40;;;17.27;65.02;101290.16;5052748;28;20225;-75
2023/06/11 06:03:03;;;;;;;8.07;5.93;;;17.60;92.20;;;17.31;64.60;101296.88;5052932;28;20705;-74
2023/06/11 06:05:37;;;;;;;11.33;5.83;;;17.70;92.20;;;17.36;63.96;101301.72;5052981;28;20267;-75
2023/06/11 06:08:12;;;;;;;9.43;6.03;;;17.70;92.00;;;17.42;64.02;101292.84;5053060;28;20194;-75
2023/06/11 06:10:45;;;;;;;7.17;5.83;;;17.80;91.80;;;17.49;63.33;101294.59;5052689;28;20259;-74
2023/06/11 06:13:18;;;;;;;7.73;5.93;;;17.90;91.80;;;17.55;64.01;101306.50;5052763;28;20230;-75
2023/06/11 06:15:52;;;;;;;9.50;5.70;;;17.90;91.80;;;17.60;63.07;101298.69;5052864;28;20218;-75
2023/06/11 06:18:27;;;;;;;7.93;5.87;;;18.00;91.10;;;17.64;63.82;101300.81;5052456;28;20670;-75
2023/06/11 06:21:00;;;;;;;8.43;6.17;;;18.00;91.30;;;17.70;61.67;101300.06;5052803;28;20280;-75
2023/06/11 06:23:34;;;;;;;9.50;6.50;;;18.10;90.20;;;17.76;61.39;101305.72;5052704;28;20310;-75
2023/06/11 06:26:07;;;;;;;11.27;6.40;;;18.20;90.20;;;17.81;62.20;101303.28;5052544;28;20646;-76
2023/06/11 06:28:41;;;;;;;8.97;6.30;;;18.20;90.60;;;17.89;61.33;101303.97;5052540;28;20190;-76
2023/06/11 06:31:16;;;;;;;7.53;5.83;;;18.30;90.60;;;17.94;61.46;101297.97;5052524;28;20244;-78
2023/06/11 06:33:50;;;;;;;8.97;6.53;;;18.40;90.20;;;17.98;61.74;101302.78;5052315;28;20705;-75
2023/06/11 06:36:23;;;;;;;9.83;6.20;;;18.40;90.10;;;18.06;60.24;101309.97;5052713;28;20538;-75
2023/06/11 06:38:57;;;;;;;7.57;5.90;;;18.50;89.30;;;18.15;59.42;101306.09;5052317;28;20674;-75
2023/06/11 06:41:30;;;;;;;9.40;6.50;;;18.50;88.10;;;18.16;59.56;101302.31;5052681;28;20277;-76
2023/06/11 06:44:03;;;;;;;6.73;5.93;;;18.50;88.20;;;18.19;60.24;101308.19;5052460;28;20693;-75
2023/06/11 06:46:37;;;;;;;8.63;6.27;;;18.60;88.40;;;18.25;59.04;101306.59;5052669;28;20252;-75
2023/06/11 06:49:10;;;;;;;9.90;6.97;;;18.70;87.50;;;18.34;59.25;101304.56;5053096;28;20195;-75
2023/06/11 06:51:43;;;;;;;9.50;6.40;;;18.70;87.40;;;18.43;59.33;101315.06;5056354;28;20226;-75
2023/06/11 06:54:17;;;;;;;11.80;6.60;;;18.80;87.70;;;18.48;59.05;101315.31;5055926;28;20222;-75
2023/06/11 06:56:50;;;;;;;8.73;6.53;;;18.90;87.40;;;18.58;58.82;101312.28;5055938;28;20628;-75
2023/06/11 06:59:23;;;;;;;7.27;6.10;;;19.00;87.30;;;18.66;59.07;101317.56;5055871;28;20225;-75
2023/06/11 07:01:56;;;;;;;9.00;6.50;;;19.10;87.10;;;18.70;58.24;101314.22;5056035;28;20190;-74
2023/06/11 07:04:30;;;;;;;11.23;6.50;;;19.10;86.10;;;18.77;58.44;101316.16;5056048;28;20240;-75
2023/06/11 07:07:04;;;;;;;8.77;6.30;;;19.20;86.70;;;18.83;58.28;101316.19;5055942;28;20226;-75
2023/06/11 07:09:37;;;;;;;8.57;6.63;;;19.20;85.60;;;18.87;57.67;101322.06;5055943;28;20194;-75
2023/06/11 07:12:13;;;;;;;8.30;6.63;;;19.20;84.90;;;18.85;57.79;101324.13;5056064;28;20286;-75
2023/06/11 07:14:47;;;;;;;6.90;6.23;;;19.20;85.00;;;18.87;58.05;101322.06;5055527;28;20536;-75
2023/06/11 07:17:22;;;;;;;8.70;6.33;;;19.30;85.90;;;18.87;58.95;101327.47;5055722;28;20280;-75
2023/06/11 07:19:56;;;;;;;9.23;6.23;;;19.20;86.30;;;18.94;58.86;101322.94;5055651;28;20186;-75
2023/06/11 07:22:29;;;;;;;7.50;6.70;;;19.30;86.30;;;18.96;57.30;101326.28;5055943;28;20763;-75
2023/06/11 07:25:03;;;;;;;10.00;6.60;;;19.30;84.70;;;18.98;56.91;101324.19;5055674;28;20285;-75
2023/06/11 07:27:36;;;;;;;11.10;6.83;;;19.40;84.30;;;19.09;57.15;101310.88;5055607;28;20289;-76
2023/06/11 07:30:14;;;;;;;7.60;6.80;;;19.50;84.70;;;19.16;57.44;101327.19;5055571;28;20190;-75
2023/06/11 07:32:47;;;;;;;12.60;6.37;;;19.60;85.00;;;19.33;56.06;101322.25;5055505;28;20313;-75
2023/06/11 07:35:21;;;;;;;7.37;6.67;;;19.80;83.00;;;19.40;56.38;101313.09;5056746;28;20217;-73
2023/06/11 07:37:55;;;;;;;9.13;6.40;;;19.80;83.40;;;19.62;55.55;101325.50;5058147;28;20221;-73
2023/06/11 07:40:29;;;;;;;9.97;6.47;;;20.00;82.60;;;19.68;55.06;101322.00;5060192;28;20258;-73
2023/06/11 07:43:02;;;;;;;10.40;6.93;;;20.10;81.80;;;19.85;54.48;101316.16;5056845;28;20316;-73
2023/06/11 07:45:36;;;;;;;9.93;6.67;;;20.20;81.60;;;19.89;54.94;101318.25;5055951;28;20222;-73
2023/06/11 07:48:10;;;;;;;8.60;6.73;;;20.30;81.00;;;20.05;54.55;101322.44;5055958;28;20235;-73
2023/06/11 07:50:44;;;;;;;9.37;6.70;;;20.40;81.00;;;20.00;54.82;101319.53;5057002;28;20272;-74
2023/06/11 07:53:18;;;;;;;8.40;6.47;;;20.50;80.80;;;20.07;54.14;101325.78;5055391;28;20312;-75
2023/06/11 07:55:56;;;;;;;9.47;7.03;;;20.40;79.90;;;20.14;53.73;101323.91;5054774;28;20186;-76
2023/06/11 07:58:30;;;;;;;8.67;6.43;;;20.50;79.50;;;20.42;53.38;101316.41;5054952;28;20210;-76
2023/06/11 08:01:03;;;;;;;11.40;6.67;;;20.80;79.80;;;20.43;53.21;101326.25;5053939;28;20632;-76
2023/06/11 08:03:37;;;;;;;8.77;6.57;;;20.80;78.80;;;20.65;53.00;101318.69;5054686;28;20718;-76
2023/06/11 08:06:11;;;;;;;11.83;6.53;;;21.00;78.70;;;20.77;53.07;101327.03;5054748;28;20671;-76
2023/06/11 08:08:44;;;;;;;9.70;6.60;;;21.10;78.40;;;20.77;52.30;101316.16;5055122;28;20253;-76
2023/06/11 08:11:17;;;;;;;8.33;6.53;;;21.20;77.30;;;20.81;53.84;101326.41;5054900;28;20277;-75
2023/06/11 08:13:51;;;;;;;8.40;6.53;;;21.20;79.40;;;20.83;54.14;101320.72;5054759;28;20309;-76
2023/06/11 08:16:23;;;;;;;9.13;6.90;;;21.30;79.70;;;21.05;51.03;101322.13;5054468;28;20194;-76
2023/06/11 08:18:58;;;;;;;7.30;6.40;;;21.40;75.50;;;21.12;50.67;101320.25;5054989;28;20280;-74
2023/06/11 08:21:32;;;;;;;7.57;6.17;;;21.50;76.00;;;21.27;50.32;101318.09;5054426;28;20201;-75
2023/06/11 08:24:05;;;;;;;6.97;6.03;;;21.70;74.50;;;21.29;51.12;101309.72;5054516;28;20313;-74
2023/06/11 08:26:39;;;;;;;8.67;6.73;;;21.70;76.40;;;21.47;49.30;101313.38;5054371;28;20628;-75
2023/06/11 08:29:12;;;;;;;7.37;6.20;;;21.90;73.30;;;21.62;47.65;101316.66;5054539;28;20194;-75
2023/06/11 08:31:46;;;;;;;8.23;6.40;;;22.00;71.60;;;21.57;49.35;101319.22;5054188;28;20228;-74
2023/06/11 08:34:20;;;;;;;6.57;5.87;;;22.00;72.70;;;21.73;49.60;101317.84;5054679;28;20222;-75
2023/06/11 08:36:53;;;;;;;10.80;6.20;;;22.20;73.00;;;21.90;48.25;101310.00;5055033;28;20631;-75
2023/06/11 08:39:26;;;;;;;13.03;6.17;;;22.30;70.70;;;22.07;46.58;101316.59;5053923;28;20588;-75
2023/06/11 08:41:59;;;;;;;9.30;6.67;;;22.50;69.10;;;22.09;47.58;101319.97;5054436;28;20281;-75
2023/06/11 08:44:33;;;;;;;8.67;5.80;;;22.50;69.50;;;22.24;47.17;101317.72;5054067;28;20263;-75
2023/06/11 08:47:09;;;;;;;10.83;5.80;;;22.70;69.10;;;22.28;46.39;101310.75;5054178;28;20282;-75
2023/06/11 08:49:47;;;;;;;6.77;5.53;;;22.70;68.60;;;22.41;47.20;101318.81;5054118;28;20782;-75
2023/06/11 08:52:23;;;;;;;7.80;6.33;;;22.80;69.20;;;22.54;45.79;101315.13;5053979;28;20261;-75
2023/06/11 08:54:57;;;;;;;9.57;5.87;;;23.00;67.30;;;22.61;46.99;101322.19;5053981;28;20290;-75
2023/06/11 08:57:31;;;;;;;9.67;6.07;;;23.00;69.50;;;22.74;45.32;101324.81;5053948;28;20338;-75
2023/06/11 09:00:07;;;;;;;10.03;5.93;;;23.10;66.70;;;22.87;46.09;101314.81;5053795;28;20315;-75
2023/06/11 09:02:41;;;;;;;8.07;5.63;;;23.30;67.00;;;23.04;44.44;101332.28;5053781;28;20225;-75
2023/06/11 09:05:16;;;;;;;6.17;5.57;;;23.40;65.80;;;23.08;43.60;101326.13;5053849;28;20194;-75
2023/06/11 09:07:57;;;;;;;7.20;5.80;;;23.50;63.40;;;23.18;43.41;101323.72;5053774;28;20592;-74
2023/06/11 09:10:30;;;;;;;7.03;5.07;;;23.50;64.00;;;23.29;45.00;101326.72;5053725;28;20209;-74
2023/06/11 09:13:07;;;;;;;7.53;5.80;;;23.70;65.30;;;23.37;43.51;101320.94;5052922;28;20251;-74
2023/06/11 09:15:46;;;;;;;7.10;5.80;;;23.70;63.70;;;23.47;42.84;101322.09;5053320;28;20226;-74
2023/06/11 09:18:25;;;;;;;9.30;5.80;;;23.80;63.40;;;23.53;43.32;101312.94;5053571;28;20213;-75
2023/06/11 09:21:01;;;;;;;9.07;5.97;;;23.90;62.80;;;23.71;42.64;101317.53;5053512;28;20236;-74
2023/06/11 09:23:38;;;;;;;7.03;5.50;;;24.00;62.10;;;23.82;41.00;101313.19;5053745;28;20233;-74
2023/06/11 09:26:17;;;;;;;11.70;5.60;;;24.20;60.10;;;24.03;40.63;101320.84;5053546;28;20218;-74
2023/06/11 09:28:53;;;;;;;5.97;5.37;;;24.30;59.60;;;24.04;39.71;101314.31;5053532;28;20186;-75
2023/06/11 09:31:27;;;;;;;9.33;5.20;;;24.40;58.30;;;24.12;40.55;101320.28;5053831;28;20201;-75
2023/06/11 09:34:06;;;;;;;9.47;5.40;;;24.50;58.70;;;24.35;39.16;101310.47;5053146;28;20588;-75
2023/06/11 09:36:40;;;;;;;7.93;5.17;;;24.70;58.10;;;24.45;39.25;101310.72;5053445;28;20589;-74
2023/06/11 09:39:16;;;;;;;8.33;5.40;;;24.80;57.40;;;24.49;40.06;101312.72;5053245;28;20301;-75
2023/06/11 09:41:55;;;;;;;7.00;5.17;;;24.80;57.70;;;24.64;38.76;101318.56;5053315;28;20190;-75
2023/06/11 09:44:36;;;;;;;8.30;5.27;;;24.90;56.80;;;24.79;38.30;101317.22;5053108;28;20248;-75
2023/06/11 09:47:10;;;;;;;6.47;5.20;;;25.10;55.80;;;24.79;36.56;101314.50;5053374;28;20312;-75
2023/06/11 09:49:44;;;;;;;7.20;5.07;;;25.10;53.80;;;24.96;37.51;101310.81;5053160;28;20182;-75
2023/06/11 09:52:20;;;;;;;9.43;5.40;;;25.10;55.10;;;24.98;39.39;101307.81;5053337;28;20229;-75
2023/06/11 09:54:56;;;;;;;5.87;5.13;;;25.30;57.10;;;25.13;37.76;101316.38;5053299;28;20194;-75
2023/06/11 09:57:31;;;;;;;7.63;4.90;;;25.50;55.20;;;25.13;34.18;101317.22;5053958;28;20279;-75
2023/06/11 10:00:09;;;;;;;7.70;5.23;;;25.40;50.70;;;25.20;35.62;101312.44;5053204;28;20609;-74
2023/06/11 10:02:44;;;;;;;6.57;4.65;;;25.40;52.00;;;25.29;35.48;101321.09;5053223;28;20276;-75
2023/06/11 10:05:20;;;;;;;7.13;4.93;;;25.60;52.10;;;25.41;35.76;101318.31;5052809;28;20196;-74
2023/06/11 10:08:02;;;;;;;6.25;4.70;;;25.70;52.00;;;25.46;35.17;101316.50;5052888;28;20742;-74
2023/06/11 10:10:44;;;;;;;7.17;5.10;;;25.80;51.10;;;25.69;35.18;101310.09;5053322;28;20186;-75
2023/06/11 10:13:30;;;;;;;8.90;5.10;;;26.00;51.60;;;25.75;36.17;101313.78;5053005;28;20230;-75
2023/06/11 10:16:08;;;;;;;9.73;4.82;;;26.10;52.10;;;25.87;36.19;101323.59;5052705;28;20194;-74
2023/06/11 10:18:42;;;;;;;5.95;4.88;;;26.10;52.90;;;25.98;34.15;101319.13;5052905;28;20186;-74
2023/06/11 10:21:15;;;;;;;7.70;4.88;;;26.20;50.30;;;26.04;34.35;101318.13;5052999;28;20218;-74
2023/06/11 10:23:55;;;;;;;8.32;4.90;;;26.30;50.30;;;26.23;33.51;101322.34;5052963;28;20284;-75
2023/06/11 10:26:38;;;;;;;9.15;4.97;;;26.50;49.00;;;26.41;32.53;101313.00;5056867;28;20201;-75
2023/06/11 10:29:25;;;;;;;5.13;4.32;;;26.60;48.10;;;26.45;32.37;101315.00;5056944;28;20190;-75
2023/06/11 10:32:04;;;;;;;6.22;4.65;;;26.70;48.00;;;26.48;33.25;101313.66;5056694;28;20226;-75
2023/06/11 10:34:45;;;;;;;4.85;4.35;;;26.70;49.10;;;26.61;32.15;101314.13;5056717;28;20281;-75
2023/06/11 10:37:30;;;;;;;7.72;4.35;;;26.80;46.80;;;26.88;29.84;101313.47;5056620;28;20293;-75
2023/06/11 10:40:05;;;;;;;6.55;4.40;;;27.10;44.00;;;26.91;29.26;101318.44;5056540;28;20213;-75
2023/06/11 10:42:43;;;;;;;6.50;4.35;;;27.10;43.10;;;27.01;29.70;101318.59;5056467;28;20226;-74